Time;durP1;ratioP1;P1;durP2;ratioP2;P2;SDS_P1;SDS_P2;PMS_P1;PMS_P2;Temp;Humidity;BMP_temperature;BMP_pressure;BME280_temperature;BME280_humidity;BME280_pressure;Samples;Min_cycle;Max_cycle;Signal;HPM_P1;HPM_P2
2021/09/09 00:00:27;;;;;;;;;;;;;;;22.55;49.11;101243.22;4965873;28;97238;-72
2021/09/09 00:02:53;;;;;;;;;;;;;;;22.83;48.15;101238.41;4969246;28;97266;-73
2021/09/09 00:05:19;;;;;;;;;;;;;;;22.80;48.57;101241.34;4971517;28;99006;-72
2021/09/09 00:07:45;;;;;;;;;;;;;;;22.86;48.64;101238.16;4971490;28;98808;-73
2021/09/09 00:10:13;;;;;;;;;;;;;;;22.50;49.19;101237.34;4968736;28;97011;-73
2021/09/09 00:12:40;;;;;;;;;;;;;;;22.89;48.20;101240.63;4970784;28;96839;-73
2021/09/09 00:15:07;;;;;;;;;;;;;;;22.81;48.54;101226.88;4970568;28;99057;-73
2021/09/09 00:17:34;;;;;;;;;;;;;;;22.89;48.77;101229.84;4970712;28;97786;-74
2021/09/09 00:20:00;;;;;;;;;;;;;;;22.87;48.67;101232.66;4969278;28;97732;-72
2021/09/09 00:22:26;;;;;;;;;;;;;;;22.78;49.17;101232.50;4969609;28;96889;-72
2021/09/09 00:24:52;;;;;;;;;;;;;;;22.73;49.09;101227.47;4969767;28;98808;-72
2021/09/09 00:27:20;;;;;;;;;;;;;;;22.85;48.58;101229.22;4970433;28;99016;-72
2021/09/09 00:29:46;;;;;;;;;;;;;;;22.69;49.00;101222.44;4968899;28;97387;-73
2021/09/09 00:32:12;;;;;;;;;;;;;;;22.67;48.88;101220.72;4969534;28;97737;-73
2021/09/09 00:34:39;;;;;;;;;;;;;;;22.61;49.16;101226.59;4972724;28;99380;-73
2021/09/09 00:37:05;;;;;;;;;;;;;;;22.52;49.69;101221.91;4970077;28;98769;-73
2021/09/09 00:39:31;;;;;;;;;;;;;;;22.42;50.33;101226.31;4966881;28;97629;-72
2021/09/09 00:41:58;;;;;;;;;;;;;;;22.43;50.05;101222.63;4971236;28;97032;-73
2021/09/09 00:44:31;;;;;;;;;;;;;;;22.50;49.88;101223.03;4970099;28;99027;-74
2021/09/09 00:46:59;;;;;;;;;;;;;;;22.27;50.36;101222.94;4962721;28;99337;-73
2021/09/09 00:49:25;;;;;;;;;;;;;;;22.23;50.62;101221.47;4972199;28;96870;-74
2021/09/09 00:51:51;;;;;;;;;;;;;;;22.26;50.47;101217.69;4959307;28;96951;-74
2021/09/09 00:54:17;;;;;;;;;;;;;;;22.33;50.14;101218.94;4970346;28;98904;-73
2021/09/09 00:56:44;;;;;;;;;;;;;;;22.31;50.05;101218.22;4964956;28;98992;-72
2021/09/09 00:59:10;;;;;;;;;;;;;;;22.31;49.85;101220.91;4960687;28;97216;-73
2021/09/09 01:01:37;;;;;;;;;;;;;;;22.41;49.63;101212.94;4972898;28;96827;-73
2021/09/09 01:04:04;;;;;;;;;;;;;;;22.34;49.66;101220.66;4967949;28;98885;-73
2021/09/09 01:06:30;;;;;;;;;;;;;;;22.25;49.74;101207.91;4970923;28;99351;-74
2021/09/09 01:08:57;;;;;;;;;;;;;;;22.29;49.35;101206.69;4967625;28;96967;-73
2021/09/09 01:11:23;;;;;;;;;;;;;;;22.31;49.52;101212.81;4971334;28;96677;-73
2021/09/09 01:13:49;;;;;;;;;;;;;;;22.27;49.39;101209.50;4970043;28;98900;-73
2021/09/09 01:16:16;;;;;;;;;;;;;;;22.24;49.40;101211.56;4969094;28;98963;-73
2021/09/09 01:18:43;;;;;;;;;;;;;;;22.20;49.64;101207.38;4969805;28;97071;-72
2021/09/09 01:21:09;;;;;;;;;;;;;;;22.10;49.78;101209.94;4970827;28;96780;-72
2021/09/09 01:23:36;;;;;;;;;;;;;;;22.09;49.84;101201.97;4969920;28;99448;-73
2021/09/09 01:26:04;;;;;;;;;;;;;;;22.25;49.54;101210.59;4960134;28;98904;-74
2021/09/09 01:28:30;;;;;;;;;;;;;;;22.13;49.72;101208.81;4970538;28;96831;-74
2021/09/09 01:30:57;;;;;;;;;;;;;;;22.11;49.59;101208.09;4971475;28;98560;-73
2021/09/09 01:33:23;;;;;;;;;;;;;;;21.98;49.36;101207.31;4972569;28;98977;-73
2021/09/09 01:35:49;;;;;;;;;;;;;;;22.02;48.74;101200.72;4962383;28;98813;-73
2021/09/09 01:38:19;;;;;;;;;;;;;;;21.63;49.21;101200.03;4974053;28;96753;-73
2021/09/09 01:40:45;;;;;;;;;;;;;;;21.79;48.50;101192.50;4970287;28;98453;-73
2021/09/09 01:43:13;;;;;;;;;;;;;;;22.15;47.69;101196.97;4974680;28;98951;-72
2021/09/09 01:45:39;;;;;;;;;;;;;;;22.03;47.85;101194.38;4973394;28;98704;-73
2021/09/09 01:48:06;;;;;;;;;;;;;;;22.10;47.25;101196.47;4973187;28;96918;-72
2021/09/09 01:50:32;;;;;;;;;;;;;;;21.76;47.87;101199.97;4972066;28;96964;-72
2021/09/09 01:52:58;;;;;;;;;;;;;;;21.64;48.01;101196.38;4973101;28;98943;-73
2021/09/09 01:55:25;;;;;;;;;;;;;;;21.95;47.55;101197.59;4970673;28;97577;-73
2021/09/09 01:57:51;;;;;;;;;;;;;;;21.87;47.92;101198.19;4971084;28;97189;-73
2021/09/09 02:00:19;;;;;;;;;;;;;;;22.05;47.74;101192.44;4972301;28;97104;-73
2021/09/09 02:02:45;;;;;;;;;;;;;;;21.97;47.35;101198.41;4972655;28;99307;-73
2021/09/09 02:05:13;;;;;;;;;;;;;;;21.97;47.23;101198.41;4975749;28;99212;-74
2021/09/09 02:07:39;;;;;;;;;;;;;;;21.94;47.18;101203.09;4972066;28;96872;-72
2021/09/09 02:10:06;;;;;;;;;;;;;;;22.11;46.95;101191.97;4969494;28;96880;-74
2021/09/09 02:12:32;;;;;;;;;;;;;;;22.17;46.76;101199.56;4972644;28;99024;-72
2021/09/09 02:14:59;;;;;;;;;;;;;;;22.09;47.04;101196.59;4974041;28;98251;-72
2021/09/09 02:17:27;;;;;;;;;;;;;;;21.59;48.38;101193.19;4972678;28;97100;-73
2021/09/09 02:19:53;;;;;;;;;;;;;;;21.90;48.02;101191.72;4972004;28;96838;-74
2021/09/09 02:22:19;;;;;;;;;;;;;;;21.97;47.56;101192.16;4970161;28;99036;-73
2021/09/09 02:24:45;;;;;;;;;;;;;;;21.86;47.69;101192.91;4973009;28;99172;-73
2021/09/09 02:27:13;;;;;;;;;;;;;;;21.58;48.41;101196.84;4971532;28;99029;-74
2021/09/09 02:29:39;;;;;;;;;;;;;;;21.82;47.34;101184.22;4971408;28;97734;-73
2021/09/09 02:32:06;;;;;;;;;;;;;;;21.91;47.08;101189.91;4971079;28;99048;-73
2021/09/09 02:34:33;;;;;;;;;;;;;;;21.86;47.00;101190.22;4971661;28;98936;-73
2021/09/09 02:37:00;;;;;;;;;;;;;;;21.68;47.86;101197.84;4972492;28;96802;-74
2021/09/09 02:39:26;;;;;;;;;;;;;;;21.94;47.20;101186.94;4972644;28;97156;-73
2021/09/09 02:41:52;;;;;;;;;;;;;;;21.86;47.77;101183.00;4964794;28;100627;-73
2021/09/09 02:44:18;;;;;;;;;;;;;;;21.94;47.68;101181.56;4954219;28;98092;-74
2021/09/09 02:46:45;;;;;;;;;;;;;;;21.81;47.59;101171.75;4972761;28;96671;-73
2021/09/09 02:49:11;;;;;;;;;;;;;;;21.86;47.63;101180.31;4971967;28;96778;-73
2021/09/09 02:51:39;;;;;;;;;;;;;;;21.69;48.19;101178.06;4974095;28;98745;-73
2021/09/09 02:54:05;;;;;;;;;;;;;;;21.71;48.48;101180.63;4975330;28;98796;-74
2021/09/09 02:56:32;;;;;;;;;;;;;;;21.76;48.01;101173.94;4973886;28;97036;-74
2021/09/09 02:58:59;;;;;;;;;;;;;;;21.68;48.05;101170.94;4974683;28;96802;-73
2021/09/09 03:01:32;;;;;;;;;;;;;;;21.66;48.58;101170.19;4966083;28;98112;-74
2021/09/09 03:04:04;;;;;;;;;;;;;;;21.68;48.59;101175.47;4970523;28;97569;-72
2021/09/09 03:06:40;;;;;;;;;;;;;;;21.71;47.80;101170.75;4965610;28;96971;-72
2021/09/09 03:09:11;;;;;;;;;;;;;;;21.70;47.84;101166.34;4969038;28;97034;-73
2021/09/09 03:11:43;;;;;;;;;;;;;;;21.64;48.31;101166.78;4952061;28;99111;-73
2021/09/09 03:14:09;;;;;;;;;;;;;;;21.38;48.14;101170.56;4971787;28;97661;-72
2021/09/09 03:16:35;;;;;;;;;;;;;;;21.52;47.81;101166.84;4972193;28;96853;-72
2021/09/09 03:19:02;;;;;;;;;;;;;;;21.57;48.39;101162.84;4971938;28;97055;-72
2021/09/09 03:21:28;;;;;;;;;;;;;;;21.51;47.39;101157.94;4966964;28;98814;-73
2021/09/09 03:23:54;;;;;;;;;;;;;;;21.47;47.52;101162.66;4971543;28;98756;-73
2021/09/09 03:26:22;;;;;;;;;;;;;;;21.28;48.27;101154.25;4971836;28;96848;-74
2021/09/09 03:28:48;;;;;;;;;;;;;;;21.36;47.54;101153.69;4969437;28;96963;-73
2021/09/09 03:31:16;;;;;;;;;;;;;;;21.29;47.67;101152.41;4971191;28;99192;-72
2021/09/09 03:33:42;;;;;;;;;;;;;;;21.16;48.08;101152.47;4971819;28;98932;-73
2021/09/09 03:36:08;;;;;;;;;;;;;;;20.92;48.91;101154.22;4970313;28;97091;-72
2021/09/09 03:38:34;;;;;;;;;;;;;;;21.08;48.32;101147.59;4957756;28;96832;-73
2021/09/09 03:41:00;;;;;;;;;;;;;;;20.99;48.56;101156.34;4971534;28;99372;-74
2021/09/09 03:43:28;;;;;;;;;;;;;;;21.31;47.94;101147.78;4971344;28;98795;-74
2021/09/09 03:45:54;;;;;;;;;;;;;;;21.32;47.97;101146.81;4987600;28;97827;-73
2021/09/09 03:48:21;;;;;;;;;;;;;;;21.31;47.49;101139.72;4985672;28;97404;-75
2021/09/09 03:50:47;;;;;;;;;;;;;;;21.13;48.75;101135.69;4991022;28;98012;-73
2021/09/09 03:53:13;;;;;;;;;;;;;;;21.05;48.13;101133.56;4976977;28;98152;-73
2021/09/09 03:55:40;;;;;;;;;;;;;;;21.26;47.77;101142.75;4979982;28;96788;-73
2021/09/09 03:58:06;;;;;;;;;;;;;;;21.25;48.39;101150.94;4989833;28;96872;-72
2021/09/09 04:00:34;;;;;;;;;;;;;;;21.34;48.42;101144.84;4988127;28;99499;-73
2021/09/09 04:03:03;;;;;;;;;;;;;;;21.35;47.90;101143.88;4990301;28;97814;-73
2021/09/09 04:05:30;;;;;;;;;;;;;;;21.19;47.64;101135.25;4982569;28;96666;-73
2021/09/09 04:07:57;;;;;;;;;;;;;;;20.52;49.56;101138.25;4994304;28;95997;-72
2021/09/09 04:10:23;;;;;;;;;;;;;;;20.27;50.09;101135.56;4984933;28;97808;-72
2021/09/09 04:12:49;;;;;;;;;;;;;;;20.20;50.18;101137.81;4991285;28;97783;-72
2021/09/09 04:15:22;;;;;;;;;;;;;;;20.20;50.47;101134.25;4995583;28;96537;-74
2021/09/09 04:17:49;;;;;;;;;;;;;;;20.61;49.47;101134.06;4989900;28;96758;-74
2021/09/09 04:20:15;;;;;;;;;;;;;;;20.11;50.32;101132.19;4948754;28;97880;-72
2021/09/09 04:22:43;;;;;;;;;;;;;;;20.46;49.72;101127.09;4980857;28;97736;-72
2021/09/09 04:25:10;;;;;;;;;;;;;;;20.15;50.34;101128.38;4978999;28;96941;-73
2021/09/09 04:27:36;;;;;;;;;;;;;;;20.18;50.25;101129.00;4970923;28;98418;-73
2021/09/09 04:30:02;;;;;;;;;;;;;;;19.99;50.38;101128.53;4963262;28;99886;-73
2021/09/09 04:32:29;;;;;;;;;;;;;;;20.22;50.15;101127.81;4954858;28;99080;-72
2021/09/09 04:34:59;;;;;;;;;;;;;;;20.29;49.86;101122.88;4973163;28;96792;-72
2021/09/09 04:37:25;;;;;;;;;;;;;;;20.64;48.75;101120.41;4975542;28;96935;-73
2021/09/09 04:39:53;;;;;;;;;;;;;;;20.46;48.98;101119.03;4975840;28;98277;-73
2021/09/09 04:42:19;;;;;;;;;;;;;;;20.62;48.22;101120.53;4970773;28;98841;-73
2021/09/09 04:44:45;;;;;;;;;;;;;;;20.49;48.34;101114.31;4960770;28;96792;-73
2021/09/09 04:47:11;;;;;;;;;;;;;;;20.61;48.53;101118.78;4971907;28;96931;-73
2021/09/09 04:49:39;;;;;;;;;;;;;;;20.73;47.89;101111.72;4968869;28;99729;-74
2021/09/09 04:52:09;;;;;;;;;;;;;;;20.92;47.56;101109.41;4969037;28;99174;-73
2021/09/09 04:54:38;;;;;;;;;;;;;;;20.63;47.84;101108.81;4956945;28;96862;-73
2021/09/09 04:57:05;;;;;;;;;;;;;;;21.03;47.05;101098.72;4969772;28;98381;-73
2021/09/09 04:59:31;;;;;;;;;;;;;;;21.14;46.66;101110.50;4968908;28;99020;-73
2021/09/09 05:01:57;;;;;;;;;;;;;;;21.25;46.11;101097.19;4970053;28;98826;-73
2021/09/09 05:04:23;;;;;;;;;;;;;;;21.24;46.38;101100.84;4968171;28;97037;-73
2021/09/09 05:06:50;;;;;;;;;;;;;;;21.21;46.08;101101.03;4969776;28;96896;-74
2021/09/09 05:09:18;;;;;;;;;;;;;;;21.31;46.00;101102.09;4963554;28;99077;-73
2021/09/09 05:11:44;;;;;;;;;;;;;;;21.36;45.67;101100.78;4968409;28;98849;-72
2021/09/09 05:14:10;;;;;;;;;;;;;;;21.03;46.28;101104.09;4950077;28;97056;-72
2021/09/09 05:16:36;;;;;;;;;;;;;;;21.25;46.01;101091.81;4970749;28;98469;-73
2021/09/09 05:19:03;;;;;;;;;;;;;;;21.35;45.52;101084.75;4971578;28;98435;-73
2021/09/09 05:21:29;;;;;;;;;;;;;;;21.16;46.15;101087.97;4968231;28;99017;-73
2021/09/09 05:23:55;;;;;;;;;;;;;;;21.09;46.19;101089.34;4970982;28;98846;-73
2021/09/09 05:26:25;;;;;;;;;;;;;;;21.49;45.12;101079.19;4966608;28;96853;-73
2021/09/09 05:28:51;;;;;;;;;;;;;;;21.46;45.14;101074.06;4962140;28;99663;-74
2021/09/09 05:31:17;;;;;;;;;;;;;;;21.59;44.57;101088.31;4956087;28;99259;-73
2021/09/09 05:33:44;;;;;;;;;;;;;;;21.60;44.72;101084.63;4963659;28;97232;-73
2021/09/09 05:36:10;;;;;;;;;;;;;;;21.75;44.42;101082.59;4966331;28;98089;-73
2021/09/09 05:38:36;;;;;;;;;;;;;;;21.45;44.95;101080.41;4956037;28;98925;-73
2021/09/09 05:41:03;;;;;;;;;;;;;;;21.22;44.97;101082.13;4969032;28;99294;-74
2021/09/09 05:43:30;;;;;;;;;;;;;;;21.42;44.51;101088.69;4968759;28;97094;-74
2021/09/09 05:45:58;;;;;;;;;;;;;;;21.57;44.25;101074.09;4967093;28;97342;-73
2021/09/09 05:48:24;;;;;;;;;;;;;;;21.48;44.66;101074.78;4969590;28;100412;-75
2021/09/09 05:50:50;;;;;;;;;;;;;;;21.56;44.38;101075.06;4968059;28;99172;-73
2021/09/09 05:53:17;;;;;;;;;;;;;;;21.76;43.85;101077.09;4962908;28;97499;-72
2021/09/09 05:55:43;;;;;;;;;;;;;;;21.96;43.41;101077.44;4968662;28;96945;-74
2021/09/09 05:58:09;;;;;;;;;;;;;;;21.85;43.61;101076.41;4970992;28;99405;-73
2021/09/09 06:00:37;;;;;;;;;;;;;;;22.01;43.55;101081.47;4965093;28;98976;-74
2021/09/09 06:03:03;;;;;;;;;;;;;;;22.03;43.42;101073.28;4965214;28;97134;-74
2021/09/09 06:05:32;;;;;;;;;;;;;;;21.99;43.33;101077.19;4969940;28;96820;-73
2021/09/09 06:07:59;;;;;;;;;;;;;;;21.79;43.93;101084.91;4963422;28;100562;-73
2021/09/09 06:10:25;;;;;;;;;;;;;;;21.82;44.01;101082.00;4964714;28;99151;-73
2021/09/09 06:12:51;;;;;;;;;;;;;;;22.18;43.27;101083.72;4963760;28;97117;-73
2021/09/09 06:15:17;;;;;;;;;;;;;;;22.35;42.58;101078.81;4971035;28;96864;-73
2021/09/09 06:17:45;;;;;;;;;;;;;;;22.59;42.42;101082.25;4967784;28;98936;-72
2021/09/09 06:20:12;;;;;;;;;;;;;;;22.29;42.75;101080.16;4971169;28;98789;-73
2021/09/09 06:22:39;;;;;;;;;;;;;;;21.77;43.43;101076.13;4971223;28;97668;-72
2021/09/09 06:25:05;;;;;;;;;;;;;;;22.55;42.16;101073.56;4974235;28;97025;-72
2021/09/09 06:27:31;;;;;;;;;;;;;;;22.77;41.49;101077.25;4969326;28;98408;-72
2021/09/09 06:29:59;;;;;;;;;;;;;;;22.91;41.12;101076.97;4967147;28;98787;-73
2021/09/09 06:32:25;;;;;;;;;;;;;;;22.31;42.13;101075.53;4968588;28;96954;-72
2021/09/09 06:34:53;;;;;;;;;;;;;;;22.62;42.16;101074.78;4969525;28;97053;-73
2021/09/09 06:37:21;;;;;;;;;;;;;;;22.57;42.03;101082.38;4966887;28;98941;-76
2021/09/09 06:39:48;;;;;;;;;;;;;;;22.76;41.71;101078.22;4965694;28;99158;-72
2021/09/09 06:42:14;;;;;;;;;;;;;;;22.88;41.38;101078.09;4971094;28;97190;-72
2021/09/09 06:44:40;;;;;;;;;;;;;;;22.66;41.37;101072.69;4969411;28;97612;-73
2021/09/09 06:47:07;;;;;;;;;;;;;;;22.70;40.79;101084.94;4970089;28;99223;-73
2021/09/09 06:49:33;;;;;;;;;;;;;;;22.75;41.35;101080.06;4971216;28;98059;-72
2021/09/09 06:52:01;;;;;;;;;;;;;;;22.59;41.33;101080.41;4970250;28;97231;-72
2021/09/09 06:54:27;;;;;;;;;;;;;;;23.94;38.88;101079.06;4967894;28;97347;-72
2021/09/09 06:56:53;;;;;;;;;;;;;;;23.82;39.04;101082.81;4969154;28;98960;-72
2021/09/09 06:59:19;;;;;;;;;;;;;;;23.42;38.85;101072.66;4965997;28;98742;-74
2021/09/09 07:01:46;;;;;;;;;;;;;;;23.65;38.62;101072.56;4970833;28;96842;-74
2021/09/09 07:04:12;;;;;;;;;;;;;;;23.90;38.16;101072.19;4971462;28;97002;-73
2021/09/09 07:06:38;;;;;;;;;;;;;;;23.70;38.12;101071.19;4969330;28;99058;-73
2021/09/09 07:09:06;;;;;;;;;;;;;;;23.48;38.44;101070.47;4970146;28;98893;-73
2021/09/09 07:11:32;;;;;;;;;;;;;;;23.76;37.83;101062.56;4971269;28;97511;-73
2021/09/09 07:13:59;;;;;;;;;;;;;;;24.06;37.56;101061.78;4963450;28;97336;-73
2021/09/09 07:16:25;;;;;;;;;;;;;;;23.62;37.79;101056.66;4965860;28;99142;-74
2021/09/09 07:18:51;;;;;;;;;;;;;;;24.01;37.51;101064.03;4968660;28;98841;-73
2021/09/09 07:21:17;;;;;;;;;;;;;;;23.70;37.77;101062.25;4970168;28;97317;-74
2021/09/09 07:23:46;;;;;;;;;;;;;;;23.93;37.58;101066.53;4970439;28;96909;-73
2021/09/09 07:26:14;;;;;;;;;;;;;;;24.27;36.87;101064.50;4953036;28;99558;-73
2021/09/09 07:28:41;;;;;;;;;;;;;;;24.31;36.71;101060.53;4971848;28;98846;-73
2021/09/09 07:31:07;;;;;;;;;;;;;;;24.22;37.28;101053.22;4978231;28;97607;-73
2021/09/09 07:33:33;;;;;;;;;;;;;;;23.67;38.29;101049.88;4967828;28;97552;-72
2021/09/09 07:36:00;;;;;;;;;;;;;;;24.40;36.71;101056.16;4970610;28;99082;-73
2021/09/09 07:38:29;;;;;;;;;;;;;;;24.72;35.95;101054.16;4967097;28;98820;-73
2021/09/09 07:40:55;;;;;;;;;;;;;;;24.42;36.85;101055.03;4966333;28;99529;-73
2021/09/09 07:43:49;;;;;;;;;;;;;;;24.78;36.07;101053.59;4968502;28;97253;-74
2021/09/09 07:46:16;;;;;;;;;;;;;;;24.26;36.49;101056.53;4952488;28;98320;-73
2021/09/09 07:48:42;;;;;;;;;;;;;;;25.21;34.95;101049.69;4961008;28;98743;-73
2021/09/09 07:51:09;;;;;;;;;;;;;;;25.01;35.06;101056.94;4968934;28;97382;-73
2021/09/09 07:53:35;;;;;;;;;;;;;;;25.30;34.61;101054.28;4965057;28;100306;-73
2021/09/09 07:56:04;;;;;;;;;;;;;;;25.18;35.03;101055.41;4967076;28;98959;-72
2021/09/09 07:58:30;;;;;;;;;;;;;;;25.12;34.10;101064.09;4970749;28;98762;-72
2021/09/09 08:00:56;;;;;;;;;;;;;;;25.50;33.78;101055.13;4969351;28;96927;-74
2021/09/09 08:03:24;;;;;;;;;;;;;;;25.79;33.58;101059.56;4952982;28;97841;-72
2021/09/09 08:06:06;;;;;;;;;;;;;;;;;;;;;
2021/09/09 08:08:33;;;;;;;;;;;;;;;26.76;32.49;101062.81;4963092;28;128322;-71
2021/09/09 08:10:59;;;;;;;;;;;;;;;26.06;32.72;101057.91;4969661;28;96977;-72
2021/09/09 08:13:29;;;;;;;;;;;;;;;26.24;32.28;101067.03;4964321;28;97088;-72
2021/09/09 08:15:55;;;;;;;;;;;;;;;25.59;33.77;101054.31;4961483;28;99049;-73
2021/09/09 08:18:21;;;;;;;;;;;;;;;25.09;34.91;101061.66;4967479;28;98868;-73
2021/09/09 08:20:49;;;;;;;;;;;;;;;25.37;34.75;101060.81;4964355;28;97227;-72
2021/09/09 08:23:15;;;;;;;;;;;;;;;25.57;34.54;101053.56;4971124;28;97365;-73
2021/09/09 08:25:41;;;;;;;;;;;;;;;25.45;34.38;101052.88;4967622;28;99265;-73
2021/09/09 08:28:08;;;;;;;;;;;;;;;25.81;34.10;101059.41;4967289;28;98806;-73
2021/09/09 08:30:34;;;;;;;;;;;;;;;25.90;33.69;101054.97;4966720;28;99401;-72
2021/09/09 08:33:00;;;;;;;;;;;;;;;25.23;34.61;101053.97;4963862;28;97351;-72
2021/09/09 08:35:27;;;;;;;;;;;;;;;25.14;34.99;101054.00;4969886;28;98881;-73
2021/09/09 08:37:54;;;;;;;;;;;;;;;25.14;34.93;101054.00;4969160;28;97825;-74
2021/09/09 08:40:22;;;;;;;;;;;;;;;25.45;34.48;101055.56;4960974;28;96790;-74
2021/09/09 08:42:48;;;;;;;;;;;;;;;25.89;34.15;101064.94;4967455;28;97765;-74
2021/09/09 08:45:16;;;;;;;;;;;;;;;26.28;33.39;101063.03;4965367;28;98553;-72
2021/09/09 08:47:42;;;;;;;;;;;;;;;26.32;33.06;101058.19;4962227;28;98808;-73
2021/09/09 08:50:10;;;;;;;;;;;;;;;25.61;34.01;101052.31;4966327;28;97175;-72
2021/09/09 08:52:36;;;;;;;;;;;;;;;26.13;33.11;101054.47;4963286;28;97045;-72
2021/09/09 08:55:04;;;;;;;;;;;;;;;26.34;33.67;101051.59;4967192;28;99029;-73
2021/09/09 08:57:32;;;;;;;;;;;;;;;26.82;32.62;101054.06;4964517;28;99257;-72
2021/09/09 08:59:58;;;;;;;;;;;;;;;26.58;32.43;101054.63;4965179;28;96841;-73
2021/09/09 09:02:24;;;;;;;;;;;;;;;26.83;32.68;101063.06;4965718;28;97693;-73
2021/09/09 09:05:00;;;;;;;;;;;;;;;26.57;32.37;101069.19;4965198;28;98747;-72
2021/09/09 09:07:30;;;;;;;;;;;;;;;26.10;33.28;101056.63;4968441;28;99132;-73
2021/09/09 09:09:58;;;;;;;;;;;;;;;26.59;32.91;101059.03;4966592;28;97236;-72
2021/09/09 09:12:37;;;;;;;;;;;;;;;26.92;32.35;101054.88;4968295;28;97811;-72
2021/09/09 09:15:09;;;;;;;;;;;;;;;27.16;31.92;101058.88;4965252;28;98942;-72
2021/09/09 09:17:50;;;;;;;;;;;;;;;26.92;31.78;101054.03;4969807;28;97720;-73
2021/09/09 09:20:17;;;;;;;;;;;;;;;27.40;31.73;101044.69;4969283;28;96916;-72
2021/09/09 09:22:44;;;;;;;;;;;;;;;27.26;32.07;101052.38;4968737;28;96991;-73
2021/09/09 09:25:11;;;;;;;;;;;;;;;27.37;31.53;101044.00;4966722;28;99365;-73
2021/09/09 09:27:46;;;;;;;;;;;;;;;27.32;31.49;101042.75;4966207;28;98852;-74
2021/09/09 09:30:13;;;;;;;;;;;;;;;27.55;31.33;101045.88;4965287;28;98533;-72
2021/09/09 09:32:45;;;;;;;;;;;;;;;27.47;31.52;101041.22;4970371;28;97176;-73
2021/09/09 09:35:12;;;;;;;;;;;;;;;27.81;30.96;101046.78;4969794;28;99071;-71
2021/09/09 09:37:49;;;;;;;;;;;;;;;27.84;31.07;101042.88;4971370;28;98791;-72
2021/09/09 09:40:22;;;;;;;;;;;;;;;27.87;31.14;101038.00;4969322;28;97023;-74
2021/09/09 09:42:50;;;;;;;;;;;;;;;27.30;31.48;101037.50;4964836;28;96965;-73
2021/09/09 09:45:17;;;;;;;;;;;;;;;27.46;31.54;101039.50;4967800;28;100098;-74
2021/09/09 09:47:43;;;;;;;;;;;;;;;27.69;31.55;101034.47;4968612;28;98923;-73
2021/09/09 09:50:17;;;;;;;;;;;;;;;27.02;32.11;101038.56;4967359;28;97160;-72
2021/09/09 09:52:43;;;;;;;;;;;;;;;27.63;32.11;101027.81;4972737;28;96878;-72
2021/09/09 09:55:11;;;;;;;;;;;;;;;27.64;30.77;101025.94;4972318;28;99098;-73
2021/09/09 09:57:51;;;;;;;;;;;;;;;27.26;31.35;101027.94;4970231;28;98384;-73
2021/09/09 10:00:18;;;;;;;;;;;;;;;27.22;31.30;101031.13;4972090;28;97293;-73
2021/09/09 10:02:44;;;;;;;;;;;;;;;26.90;31.77;101032.53;4972465;28;96858;-73
2021/09/09 10:05:11;;;;;;;;;;;;;;;26.66;32.45;101032.19;4966622;28;99182;-72
2021/09/09 10:07:37;;;;;;;;;;;;;;;26.58;32.70;101027.50;4970427;28;98930;-73
2021/09/09 10:10:04;;;;;;;;;;;;;;;26.94;32.31;101027.63;4968636;28;97230;-72
2021/09/09 10:12:31;;;;;;;;;;;;;;;27.19;31.78;101026.88;4972274;28;96826;-71
2021/09/09 10:15:00;;;;;;;;;;;;;;;27.65;31.26;101019.50;4970796;28;98943;-71
2021/09/09 10:17:30;;;;;;;;;;;;;;;27.32;31.68;101018.34;4969398;28;98829;-72
2021/09/09 10:20:16;;;;;;;;;;;;;;;26.95;32.14;101023.91;4972668;28;97204;-72
2021/09/09 10:22:59;;;;;;;;;;;;;;;27.42;31.65;101018.25;4970249;28;97131;-72
2021/09/09 10:25:39;;;;;;;;;;;;;;;27.01;31.93;101026.00;4969784;28;98885;-73
2021/09/09 10:28:25;;;;;;;;;;;;;;;26.89;32.53;101014.53;4971564;28;99304;-73
2021/09/09 10:31:02;;;;;;;;;;;;;;;27.21;32.29;101014.00;4965584;28;97232;-72
2021/09/09 10:33:28;;;;;;;;;;;;;;;27.60;32.25;101019.13;4970249;28;97140;-73
2021/09/09 10:35:55;;;;;;;;;;;;;;;27.27;31.97;101007.09;4969423;28;98997;-73
2021/09/09 10:38:27;;;;;;;;;;;;;;;27.73;31.51;101008.69;4968917;28;97738;-72
2021/09/09 10:40:53;;;;;;;;;;;;;;;27.72;32.23;101005.13;4969242;28;96790;-73
2021/09/09 10:43:34;;;;;;;;;;;;;;;27.31;32.10;101006.63;4967099;28;96933;-73
2021/09/09 10:46:01;;;;;;;;;;;;;;;27.68;31.73;101002.91;4963353;28;99282;-73
2021/09/09 10:48:29;;;;;;;;;;;;;;;27.53;31.94;101002.63;4967708;28;99086;-76
2021/09/09 10:51:00;;;;;;;;;;;;;;;27.70;31.68;101009.00;4968205;28;99047;-72
2021/09/09 10:53:35;;;;;;;;;;;;;;;27.42;32.10;101010.97;4964203;28;97669;-72
2021/09/09 10:56:07;;;;;;;;;;;;;;;27.31;32.21;101001.19;4970982;28;98977;-72
2021/09/09 10:58:34;;;;;;;;;;;;;;;26.95;33.00;100997.66;4970161;28;99016;-72
2021/09/09 11:01:02;;;;;;;;;;;;;;;27.68;32.17;101003.75;4969552;28;98016;-72
2021/09/09 11:03:34;;;;;;;;;;;;;;;27.59;31.79;100996.56;4969374;28;97747;-73
2021/09/09 11:06:01;;;;;;;;;;;;;;;28.14;31.13;100991.69;4965783;28;98989;-74
2021/09/09 11:08:28;;;;;;;;;;;;;;;27.95;31.58;100989.19;4970919;28;98821;-73
2021/09/09 11:10:56;;;;;;;;;;;;;;;27.71;32.37;100994.44;4968868;28;97830;-75
2021/09/09 11:13:25;;;;;;;;;;;;;;;27.21;32.35;100995.03;4969442;28;96935;-73
2021/09/09 11:15:52;;;;;;;;;;;;;;;27.80;31.81;100998.91;4971983;28;98997;-73
2021/09/09 11:18:23;;;;;;;;;;;;;;;27.29;32.92;100991.53;4974235;28;100327;-74
2021/09/09 11:20:50;;;;;;;;;;;;;;;27.65;32.09;100989.63;4974502;28;96936;-73
2021/09/09 11:23:16;;;;;;;;;;;;;;;27.52;32.47;100987.34;4979458;28;97254;-74
2021/09/09 11:25:42;;;;;;;;;;;;;;;27.97;32.16;100981.69;4969220;28;100527;-73
2021/09/09 11:28:14;;;;;;;;;;;;;;;28.17;31.56;100984.22;4971742;28;99049;-72
2021/09/09 11:30:40;;;;;;;;;;;;;;;27.87;31.75;100974.69;4967399;28;97281;-73
2021/09/09 11:33:07;;;;;;;;;;;;;;;27.80;31.44;100982.63;4971575;28;96992;-73
2021/09/09 11:35:33;;;;;;;;;;;;;;;28.00;31.73;100970.53;4970740;28;99216;-72
2021/09/09 11:37:59;;;;;;;;;;;;;;;28.05;32.06;100975.47;4971013;28;99325;-72
2021/09/09 11:40:26;;;;;;;;;;;;;;;28.22;31.28;100979.16;4969216;28;96963;-72
2021/09/09 11:42:59;;;;;;;;;;;;;;;28.25;31.47;100968.81;4971788;28;97943;-71
2021/09/09 11:45:27;;;;;;;;;;;;;;;28.47;31.37;100962.78;4970258;28;98929;-72
2021/09/09 11:48:01;;;;;;;;;;;;;;;28.61;31.58;100963.16;4968771;28;99309;-71
2021/09/09 11:50:27;;;;;;;;;;;;;;;28.66;31.03;100963.50;4967682;28;97253;-73
2021/09/09 11:53:01;;;;;;;;;;;;;;;28.41;31.62;100966.16;4970476;28;97517;-72
2021/09/09 11:55:28;;;;;;;;;;;;;;;28.82;31.51;100964.41;4967760;28;98913;-73
2021/09/09 11:57:54;;;;;;;;;;;;;;;28.93;30.46;100961.41;4969747;28;98789;-73
2021/09/09 12:00:20;;;;;;;;;;;;;;;28.31;32.70;100967.28;4970240;28;96948;-72
2021/09/09 12:02:48;;;;;;;;;;;;;;;29.01;31.82;100965.16;4967316;28;98250;-71
2021/09/09 12:05:16;;;;;;;;;;;;;;;28.09;32.20;100961.38;4968364;28;98988;-73
2021/09/09 12:07:43;;;;;;;;;;;;;;;28.66;30.85;100950.78;4970478;28;98862;-74
2021/09/09 12:10:11;;;;;;;;;;;;;;;28.84;30.93;100951.50;4969838;28;97383;-73
2021/09/09 12:12:37;;;;;;;;;;;;;;;29.15;31.54;100954.44;4967370;28;97066;-73
2021/09/09 12:15:05;;;;;;;;;;;;;;;29.27;31.13;100947.66;4967862;28;99433;-73
2021/09/09 12:17:31;;;;;;;;;;;;;;;28.35;32.14;100949.66;4970570;28;97766;-72
2021/09/09 12:20:01;;;;;;;;;;;;;;;28.44;31.89;100945.94;4971098;28;97173;-73
2021/09/09 12:22:44;;;;;;;;;;;;;;;28.92;31.35;100939.81;4970180;28;97296;-73
2021/09/09 12:25:15;;;;;;;;;;;;;;;28.84;31.52;100945.22;4971253;28;98830;-73
2021/09/09 12:27:53;;;;;;;;;;;;;;;29.02;31.24;100935.03;4972492;28;99486;-72
2021/09/09 12:30:20;;;;;;;;;;;;;;;28.69;31.60;100935.97;4971699;28;97019;-72
2021/09/09 12:32:47;;;;;;;;;;;;;;;28.87;31.91;100940.31;4972078;28;97234;-71
2021/09/09 12:35:16;;;;;;;;;;;;;;;29.06;31.11;100925.53;4972667;28;101356;-72
2021/09/09 12:37:42;;;;;;;;;;;;;;;29.03;31.59;100933.16;4970433;28;98820;-73
2021/09/09 12:40:09;;;;;;;;;;;;;;;28.96;31.37;100927.56;4969498;28;97437;-72